Time;durP1;ratioP1;P1;durP2;ratioP2;P2;SDS_P1;SDS_P2;PMS_P1;PMS_P2;Temp;Humidity;BMP_temperature;BMP_pressure;BME280_temperature;BME280_humidity;BME280_pressure;Samples;Min_cycle;Max_cycle;Signal;HPM_P1;HPM_P2
2022/04/24 00:00:24;;;;;;;17.52;5.38;;;9.70;99.90;;;;;;5207582;28;20026;-74
2022/04/24 00:02:55;;;;;;;20.88;5.75;;;9.70;99.90;;;;;;5207217;28;20034;-76
2022/04/24 00:05:26;;;;;;;20.30;5.75;;;9.70;99.90;;;;;;5206061;28;20026;-74
2022/04/24 00:07:56;;;;;;;15.98;5.53;;;9.50;99.90;;;;;;5207314;28;20056;-75
2022/04/24 00:10:27;;;;;;;14.40;5.05;;;9.70;99.90;;;;;;5205877;28;20079;-75
2022/04/24 00:12:58;;;;;;;19.25;5.18;;;9.50;99.90;;;;;;5207283;28;20025;-76
2022/04/24 00:15:29;;;;;;;18.42;5.25;;;9.40;99.90;;;;;;5207365;28;20029;-74
2022/04/24 00:18:00;;;;;;;16.08;5.85;;;9.80;99.90;;;;;;5206050;28;20473;-75
2022/04/24 00:20:31;;;;;;;19.27;5.35;;;9.80;99.90;;;;;;5207248;28;20025;-76
2022/04/24 00:23:03;;;;;;;11.88;5.05;;;9.40;99.90;;;;;;5206718;28;20104;-74
2022/04/24 00:25:33;;;;;;;22.02;5.03;;;9.40;99.90;;;;;;5207120;28;20472;-75
2022/04/24 00:28:04;;;;;;;18.00;5.63;;;9.40;99.90;;;;;;5207286;28;20032;-75
2022/04/24 00:30:35;;;;;;;12.15;4.93;;;9.40;99.90;;;;;;5205707;28;20108;-75
2022/04/24 00:33:06;;;;;;;15.68;6.53;;;9.30;99.90;;;;;;5206847;28;20030;-74
2022/04/24 00:35:37;;;;;;;20.27;5.30;;;9.40;99.90;;;;;;5206807;28;20064;-74
2022/04/24 00:38:07;;;;;;;15.63;5.00;;;9.60;99.90;;;;;;5205778;28;20091;-75
2022/04/24 00:40:38;;;;;;;16.92;5.22;;;9.30;99.90;;;;;;5205786;28;20028;-75
2022/04/24 00:43:10;;;;;;;15.82;5.82;;;;;;;;;;5206872;28;20041;-75
2022/04/24 00:45:40;;;;;;;14.90;6.30;;;8.80;99.90;;;;;;5206917;28;20084;-75
2022/04/24 00:48:11;;;;;;;16.48;5.20;;;8.80;99.90;;;;;;5206718;28;20033;-75
2022/04/24 00:50:43;;;;;;;14.07;5.22;;;9.30;99.90;;;;;;5206837;28;20028;-75
2022/04/24 00:53:14;;;;;;;13.82;4.57;;;9.30;99.90;;;;;;5206549;28;20060;-74
2022/04/24 00:55:45;;;;;;;21.80;5.68;;;8.90;99.90;;;;;;5206866;28;20064;-75
2022/04/24 00:58:15;;;;;;;17.63;6.28;;;8.90;99.90;;;;;;5206673;28;20041;-75
2022/04/24 01:00:46;;;;;;;18.00;5.82;;;9.20;99.90;;;;;;5206728;28;20169;-74
2022/04/24 01:03:17;;;;;;;21.60;5.68;;;8.70;99.90;;;;;;5205630;28;20034;-74
2022/04/24 01:05:48;;;;;;;14.70;5.85;;;8.90;99.90;;;;;;5211040;28;20108;-74
2022/04/24 01:08:19;;;;;;;22.25;5.70;;;9.20;99.90;;;;;;5210965;28;20450;-75
2022/04/24 01:10:50;;;;;;;15.68;6.10;;;9.10;99.90;;;;;;5209493;28;20094;-75
2022/04/24 01:13:20;;;;;;;13.63;5.43;;;8.60;99.90;;;;;;5210350;28;20029;-74
2022/04/24 01:15:51;;;;;;;13.90;5.38;;;8.60;99.90;;;;;;5210782;28;20026;-74
2022/04/24 01:18:23;;;;;;;23.77;7.32;;;8.90;99.90;;;;;;5209286;28;20021;-74
2022/04/24 01:20:54;;;;;;;18.25;5.80;;;8.70;99.90;;;;;;5210526;28;20365;-74
2022/04/24 01:23:25;;;;;;;14.57;5.65;;;9.00;99.90;;;;;;5208693;28;20115;-74
2022/04/24 01:25:57;;;;;;;15.38;6.13;;;8.80;99.90;;;;;;5209045;28;20376;-74
2022/04/24 01:28:28;;;;;;;17.92;6.85;;;9.00;99.90;;;;;;5210366;28;20108;-75
2022/04/24 01:30:59;;;;;;;14.73;5.65;;;8.70;99.90;;;;;;5210115;28;20112;-75
2022/04/24 01:33:29;;;;;;;23.10;6.43;;;8.50;99.90;;;;;;5210297;28;20022;-75
2022/04/24 01:36:00;;;;;;;17.55;5.45;;;8.70;99.90;;;;;;5209117;28;20112;-74
2022/04/24 01:38:31;;;;;;;16.27;5.82;;;8.70;99.90;;;;;;5209913;28;20026;-74
2022/04/24 01:41:02;;;;;;;12.57;4.75;;;9.00;99.90;;;;;;5210299;28;20106;-74
2022/04/24 01:43:33;;;;;;;15.50;5.40;;;8.80;99.90;;;;;;5210134;28;20049;-75
2022/04/24 01:46:08;;;;;;;10.88;5.20;;;8.40;99.90;;;;;;5209987;28;20347;-74
2022/04/24 01:48:39;;;;;;;18.58;5.10;;;8.50;99.90;;;;;;5210066;28;20487;-74
2022/04/24 01:51:11;;;;;;;14.70;5.60;;;8.40;99.90;;;;;;5209916;28;20017;-74
2022/04/24 01:53:44;;;;;;;24.05;7.43;;;8.60;99.90;;;;;;5209835;28;20025;-74
2022/04/24 01:56:15;;;;;;;15.82;4.93;;;8.70;99.90;;;;;;5209918;28;20025;-75
2022/04/24 01:58:46;;;;;;;10.88;4.20;;;8.80;99.90;;;;;;5209708;28;20033;-74
2022/04/24 02:01:17;;;;;;;15.27;5.53;;;8.40;99.90;;;;;;5209783;28;20074;-74
2022/04/24 02:03:47;;;;;;;13.60;5.80;;;8.30;99.90;;;;;;5209725;28;20041;-74
2022/04/24 02:06:18;;;;;;;14.77;5.65;;;8.30;99.90;;;;;;5209872;28;20029;-74
2022/04/24 02:08:49;;;;;;;22.80;4.82;;;8.30;99.90;;;;;;5208389;28;20065;-75
2022/04/24 02:11:20;;;;;;;14.05;5.28;;;8.30;99.90;;;;;;5209471;28;20029;-75
2022/04/24 02:13:51;;;;;;;15.77;5.05;;;8.50;99.90;;;;;;5209275;28;20021;-74
2022/04/24 02:16:22;;;;;;;15.57;5.28;;;8.60;99.90;;;;;;5209345;28;20370;-74
2022/04/24 02:18:53;;;;;;;12.50;5.32;;;8.30;99.90;;;;;;5209106;28;20034;-75
2022/04/24 02:21:24;;;;;;;15.98;5.10;;;8.20;99.90;;;;;;5207936;28;20029;-74
2022/04/24 02:23:55;;;;;;;17.27;6.07;;;8.20;99.90;;;;;;5209108;28;20049;-73
2022/04/24 02:26:26;;;;;;;16.88;6.00;;;7.70;99.90;;;;;;5209316;28;20021;-74
2022/04/24 02:28:57;;;;;;;17.63;5.38;;;8.20;99.90;;;;;;5209194;28;20025;-75
2022/04/24 02:31:28;;;;;;;12.25;4.93;;;8.40;99.90;;;;;;5207830;28;20026;-74
2022/04/24 02:33:58;;;;;;;18.15;5.88;;;8.50;99.90;;;;;;5209128;28;20473;-74
2022/04/24 02:36:29;;;;;;;12.88;5.22;;;8.20;99.90;;;;;;5209015;28;20445;-75
2022/04/24 02:39:00;;;;;;;13.32;5.32;;;8.30;99.90;;;;;;5208954;28;20031;-74
2022/04/24 02:41:38;;;;;;;15.05;6.40;;;8.00;99.90;;;;;;5209031;28;20079;-75
2022/04/24 02:44:09;;;;;;;16.38;6.32;;;7.60;99.90;;;;;;5209006;28;20124;-74
2022/04/24 02:46:39;;;;;;;15.52;6.90;;;8.00;99.90;;;;;;5207600;28;20108;-74
2022/04/24 02:49:10;;;;;;;18.95;6.68;;;7.90;99.90;;;;;;5208684;28;20079;-74
2022/04/24 02:51:41;;;;;;;22.92;6.57;;;7.90;99.90;;;;;;5208680;28;20052;-75
2022/04/24 02:54:12;;;;;;;23.10;8.60;;;7.80;99.90;;;;;;5208578;28;20038;-75
2022/04/24 02:56:43;;;;;;;18.10;5.93;;;8.00;99.90;;;;;;5208482;28;20029;-74
2022/04/24 02:59:16;;;;;;;10.68;5.65;;;7.80;99.90;;;;;;5208319;28;20476;-75
2022/04/24 03:01:48;;;;;;;16.40;6.30;;;7.70;99.90;;;;;;5208314;28;20025;-74
2022/04/24 03:04:19;;;;;;;17.80;6.22;;;8.00;99.90;;;;;;5208558;28;20029;-73
2022/04/24 03:06:50;;;;;;;12.70;6.25;;;7.80;99.90;;;;;;5208362;28;20053;-75
2022/04/24 03:09:21;;;;;;;17.58;5.63;;;7.60;99.90;;;;;;5208465;28;20056;-74
2022/04/24 03:11:52;;;;;;;19.75;6.22;;;7.70;99.90;;;;;;5208293;28;20029;-74
2022/04/24 03:14:23;;;;;;;15.10;6.70;;;7.70;99.90;;;;;;5208381;28;20044;-74
2022/04/24 03:16:53;;;;;;;13.85;6.30;;;7.50;99.90;;;;;;5208321;28;20449;-74
2022/04/24 03:19:24;;;;;;;13.57;6.22;;;7.80;99.90;;;;;;5558857;23;20132;-71
2022/04/24 03:21:55;;;;;;;13.00;6.18;;;8.00;99.90;;;;;;5207206;28;20037;-70
2022/04/24 03:24:26;;;;;;;17.17;6.00;;;8.00;99.90;;;;;;5206888;28;20345;-71
2022/04/24 03:26:57;;;;;;;15.40;5.80;;;7.60;99.90;;;;;;5207276;28;20036;-73
2022/04/24 03:29:29;;;;;;;18.50;6.80;;;7.60;99.90;;;;;;5208038;28;20489;-70
2022/04/24 03:31:59;;;;;;;18.92;6.65;;;7.40;99.90;;;;;;5206788;28;20538;-71
2022/04/24 03:34:31;;;;;;;15.35;6.63;;;7.70;99.90;;;;;;5207955;28;20037;-71
2022/04/24 03:37:03;;;;;;;21.00;7.25;;;8.00;99.90;;;;;;5207912;28;20080;-70
2022/04/24 03:39:34;;;;;;;14.13;5.75;;;7.80;99.90;;;;;;5207539;28;20405;-70
2022/04/24 03:42:06;;;;;;;17.92;6.30;;;7.90;99.90;;;;;;5207750;28;20109;-70
2022/04/24 03:44:37;;;;;;;13.77;5.97;;;7.80;99.90;;;;;;5207862;28;20029;-71
2022/04/24 03:47:08;;;;;;;13.93;6.28;;;7.60;99.90;;;;;;5207822;28;20018;-72
2022/04/24 03:49:39;;;;;;;18.75;6.53;;;7.70;99.90;;;;;;5207406;28;20025;-71
2022/04/24 03:52:13;;;;;;;14.48;7.78;;;7.80;99.90;;;;;;5207499;28;20024;-70
2022/04/24 03:54:44;;;;;;;17.83;7.55;;;8.00;99.90;;;;;;5207578;28;20025;-70
2022/04/24 03:57:14;;;;;;;17.20;6.00;;;8.00;99.90;;;;;;5207547;28;20021;-73
2022/04/24 03:59:45;;;;;;;17.58;6.50;;;8.20;99.90;;;;;;5207498;28;20017;-70
2022/04/24 04:02:16;;;;;;;15.52;7.03;;;8.30;99.90;;;;;;5207314;28;20037;-70
2022/04/24 04:04:47;;;;;;;14.27;7.85;;;8.30;99.90;;;;;;5207381;28;20021;-70
2022/04/24 04:07:18;;;;;;;12.23;5.85;;;8.40;99.90;;;;;;5207523;28;20021;-71
2022/04/24 04:09:49;;;;;;;22.50;6.93;;;8.30;99.90;;;;;;5206087;28;20028;-70
2022/04/24 04:12:25;;;;;;;16.42;7.55;;;8.40;99.90;;;;;;5207307;28;20018;-70
2022/04/24 04:14:56;;;;;;;14.50;6.40;;;8.60;99.90;;;;;;5207301;28;20021;-70
2022/04/24 04:17:26;;;;;;;24.00;7.40;;;8.70;99.90;;;;;;5205996;28;20063;-71
2022/04/24 04:19:57;;;;;;;15.57;6.60;;;8.20;99.90;;;;;;5206754;28;20446;-70
2022/04/24 04:22:28;;;;;;;13.75;6.28;;;8.70;99.90;;;;;;5207171;28;20044;-70
2022/04/24 04:24:59;;;;;;;23.75;6.45;;;8.70;99.90;;;;;;5207117;28;20022;-70
2022/04/24 04:27:30;;;;;;;15.98;5.80;;;8.80;99.90;;;;;;5207066;28;20022;-71
2022/04/24 04:30:02;;;;;;;14.65;6.65;;;9.00;99.90;;;;;;5207070;28;20072;-70
2022/04/24 04:32:35;;;;;;;16.13;6.13;;;9.00;99.90;;;;;;5203622;28;20084;-70
2022/04/24 04:35:09;;;;;;;15.95;6.22;;;9.10;99.90;;;;;;5205111;28;20029;-70
2022/04/24 04:37:44;;;;;;;18.77;6.28;;;9.20;99.90;;;;;;5205943;28;20045;-71
2022/04/24 04:40:21;;;;;;;17.77;6.03;;;9.40;99.90;;;;;;5206087;28;20941;-70
2022/04/24 04:42:57;;;;;;;14.77;6.65;;;9.50;99.90;;;;;;5206052;28;20033;-73
2022/04/24 04:45:32;;;;;;;20.52;5.80;;;9.60;99.90;;;;;;5203904;28;20022;-76
2022/04/24 04:48:03;;;;;;;11.30;5.57;;;9.70;99.90;;;;;;5206664;28;20029;-71
2022/04/24 04:50:34;;;;;;;21.15;6.70;;;9.70;99.90;;;;;;5206864;28;20365;-70
2022/04/24 04:53:05;;;;;;;14.48;6.40;;;9.90;99.90;;;;;;5206701;28;20342;-71
2022/04/24 04:55:36;;;;;;;15.07;6.68;;;10.10;99.90;;;;;;5206568;28;20038;-71
2022/04/24 04:58:07;;;;;;;18.27;6.55;;;9.70;99.90;;;;;;5205348;28;20095;-70
2022/04/24 05:00:38;;;;;;;14.52;5.65;;;10.10;99.90;;;;;;5206649;28;20026;-71
2022/04/24 05:03:09;;;;;;;22.80;6.25;;;10.60;99.90;;;;;;5206490;28;20044;-70
2022/04/24 05:05:40;;;;;;;16.63;5.18;;;10.70;99.90;;;;;;5206674;28;20022;-76
2022/04/24 05:08:11;;;;;;;24.17;6.22;;;11.10;99.90;;;;;;5206643;28;20505;-70
2022/04/24 05:10:41;;;;;;;18.00;6.35;;;11.20;99.90;;;;;;5205281;28;20029;-72
2022/04/24 05:13:12;;;;;;;11.77;6.00;;;11.20;99.90;;;;;;5206614;28;20111;-70
2022/04/24 05:15:43;;;;;;;12.00;5.78;;;11.50;99.90;;;;;;5206594;28;20021;-71
2022/04/24 05:18:14;;;;;;;14.90;5.88;;;11.80;99.90;;;;;;5206509;28;20032;-70
2022/04/24 05:20:45;;;;;;;17.08;6.03;;;11.90;99.90;;;;;;5206422;28;20045;-70
2022/04/24 05:23:16;;;;;;;13.93;6.53;;;12.00;99.90;;;;;;5206564;28;20041;-70
2022/04/24 05:25:46;;;;;;;11.05;5.78;;;12.50;99.90;;;;;;5206533;28;20491;-70
2022/04/24 05:28:17;;;;;;;15.57;5.55;;;12.70;99.90;;;;;;5206498;28;20072;-71
2022/04/24 05:30:48;;;;;;;12.23;5.47;;;12.80;99.90;;;;;;5206470;28;20038;-70
2022/04/24 05:33:19;;;;;;;16.13;5.40;;;13.00;99.90;;;;;;5206518;28;20048;-70
2022/04/24 05:35:50;;;;;;;16.25;5.43;;;13.20;99.90;;;;;;5205250;28;20040;-71
2022/04/24 05:38:20;;;;;;;12.98;5.38;;;13.30;99.90;;;;;;5206445;28;20021;-70
2022/04/24 05:40:51;;;;;;;15.30;6.38;;;13.70;99.90;;;;;;5205965;28;20358;-74
2022/04/24 05:43:22;;;;;;;12.73;6.00;;;14.10;99.90;;;;;;5205822;28;20034;-70
2022/04/24 05:45:53;;;;;;;15.57;5.38;;;14.40;99.90;;;;;;5204793;28;20102;-72
2022/04/24 05:48:24;;;;;;;17.85;6.32;;;14.60;99.90;;;;;;5205800;28;20041;-71
2022/04/24 05:50:55;;;;;;;10.32;4.93;;;14.90;99.90;;;;;;5209032;28;20022;-70
2022/04/24 05:53:25;;;;;;;13.93;5.95;;;15.30;99.90;;;;;;5209803;28;20048;-71
2022/04/24 05:55:57;;;;;;;16.83;6.50;;;15.20;99.90;;;;;;5209930;28;20026;-71
2022/04/24 05:58:28;;;;;;;16.10;7.78;;;15.80;99.90;;;;;;5208547;28;20420;-70
2022/04/24 06:00:58;;;;;;;23.17;7.20;;;15.70;99.90;;;;;;5209517;28;20017;-70
2022/04/24 06:03:29;;;;;;;25.27;10.05;;;16.20;99.90;;;;;;5209686;28;20041;-74
2022/04/24 06:06:00;;;;;;;19.15;9.55;;;16.00;99.90;;;;;;5209566;28;20052;-71
2022/04/24 06:08:31;;;;;;;26.98;12.40;;;16.50;99.90;;;;;;5209607;28;20026;-70
2022/04/24 06:11:01;;;;;;;20.90;12.10;;;16.60;99.90;;;;;;5209469;28;20029;-71
2022/04/24 06:13:32;;;;;;;23.10;10.68;;;16.50;99.90;;;;;;5207914;28;20419;-71
2022/04/24 06:16:03;;;;;;;17.67;6.82;;;16.90;99.90;;;;;;5209527;28;20068;-73
2022/04/24 06:18:34;;;;;;;18.48;7.82;;;17.90;99.90;;;;;;5209151;28;20042;-71
2022/04/24 06:21:05;;;;;;;12.10;4.93;;;18.10;99.90;;;;;;5209294;28;20388;-72
2022/04/24 06:23:36;;;;;;;11.10;4.05;;;18.50;99.90;;;;;;5209477;28;20065;-72
2022/04/24 06:26:07;;;;;;;9.05;2.97;;;18.60;99.90;;;;;;5209347;28;20095;-73
2022/04/24 06:28:37;;;;;;;7.90;2.70;;;18.90;99.90;;;;;;5208154;28;20021;-73
2022/04/24 06:31:08;;;;;;;7.20;3.08;;;18.80;99.90;;;;;;5209297;28;20080;-71
2022/04/24 06:33:39;;;;;;;6.63;2.72;;;19.20;99.90;;;;;;5209128;28;20362;-74
2022/04/24 06:36:10;;;;;;;6.60;2.92;;;19.40;99.90;;;;;;5209268;28;20037;-74
2022/04/24 06:38:40;;;;;;;8.38;2.92;;;19.50;99.90;;;;;;5209117;28;20014;-72
2022/04/24 06:41:11;;;;;;;5.05;3.20;;;19.60;99.90;;;;;;5208949;28;20057;-72
2022/04/24 06:43:42;;;;;;;11.35;2.85;;;19.60;99.90;;;;;;5208998;28;20041;-74
2022/04/24 06:46:13;;;;;;;10.75;3.38;;;19.80;99.90;;;;;;5208966;28;20025;-71
2022/04/24 06:48:43;;;;;;;6.57;2.95;;;19.90;99.90;;;;;;5208798;28;20072;-75
2022/04/24 06:51:14;;;;;;;8.10;2.95;;;19.90;99.90;;;;;;5208990;28;20025;-74
2022/04/24 06:53:45;;;;;;;10.10;3.15;;;20.10;99.90;;;;;;5208884;28;20469;-71
2022/04/24 06:56:16;;;;;;;7.38;3.13;;;20.20;99.90;;;;;;5208855;28;20029;-71
2022/04/24 06:58:47;;;;;;;7.80;3.13;;;20.70;99.90;;;;;;5208587;28;20018;-71
2022/04/24 07:01:19;;;;;;;5.15;2.60;;;20.20;99.90;;;;;;5208535;28;20035;-71
2022/04/24 07:03:50;;;;;;;12.82;3.60;;;20.40;99.90;;;;;;5208643;28;20033;-72
2022/04/24 07:06:21;;;;;;;7.15;2.80;;;20.70;99.90;;;;;;5207359;28;20029;-72
2022/04/24 07:08:52;;;;;;;7.38;2.90;;;20.60;99.90;;;;;;5208599;28;20108;-75
2022/04/24 07:11:22;;;;;;;8.18;3.42;;;20.70;99.90;;;;;;5207287;28;20029;-73
2022/04/24 07:13:53;;;;;;;4.22;2.22;;;20.80;99.90;;;;;;5208400;28;20491;-72
2022/04/24 07:16:24;;;;;;;4.50;2.10;;;21.00;99.90;;;;;;5208445;28;20033;-71
2022/04/24 07:18:55;;;;;;;8.95;2.72;;;21.00;99.90;;;;;;5207857;28;20029;-71
2022/04/24 07:21:25;;;;;;;6.45;2.80;;;21.10;99.90;;;;;;5208373;28;20037;-71
2022/04/24 07:23:56;;;;;;;8.00;2.80;;;20.90;99.90;;;;;;5206831;28;20183;-73
2022/04/24 07:26:27;;;;;;;7.28;2.70;;;21.10;99.90;;;;;;5208244;28;20040;-76
2022/04/24 07:28:58;;;;;;;3.20;2.28;;;21.40;99.90;;;;;;5208048;28;20111;-72
2022/04/24 07:31:29;;;;;;;5.35;2.00;;;21.30;99.90;;;;;;5208082;28;20144;-75
2022/04/24 07:34:00;;;;;;;6.60;2.25;;;21.60;99.90;;;;;;5208067;28;20033;-71
2022/04/24 07:36:31;;;;;;;6.07;2.65;;;21.30;99.90;;;;;;5206644;28;20029;-73
2022/04/24 07:39:02;;;;;;;5.55;2.22;;;21.50;99.90;;;;;;5206677;28;20032;-74
2022/04/24 07:41:33;;;;;;;5.70;2.30;;;21.40;99.90;;;;;;5207120;28;20026;-71
2022/04/24 07:44:03;;;;;;;3.90;1.83;;;21.70;99.90;;;;;;5207831;28;20040;-71
2022/04/24 07:46:34;;;;;;;12.63;2.55;;;21.80;99.90;;;;;;5207802;28;20021;-74
2022/04/24 07:49:05;;;;;;;6.50;1.70;;;21.70;99.90;;;;;;5207493;28;20354;-72
2022/04/24 07:51:36;;;;;;;5.07;2.03;;;21.90;99.90;;;;;;5206349;28;20044;-71
2022/04/24 07:54:07;;;;;;;4.10;1.77;;;21.80;99.90;;;;;;5207721;28;20033;-71
2022/04/24 07:56:39;;;;;;;5.55;1.98;;;22.20;99.90;;;;;;5207568;28;20034;-74
2022/04/24 07:59:10;;;;;;;5.07;2.00;;;21.80;99.90;;;;;;5207490;28;20029;-76
2022/04/24 08:01:40;;;;;;;3.53;2.45;;;22.20;99.90;;;;;;5207650;28;20457;-75
2022/04/24 08:04:11;;;;;;;9.98;1.70;;;22.40;99.90;;;;;;5206187;28;20037;-75
2022/04/24 08:06:42;;;;;;;4.35;1.85;;;22.70;99.90;;;;;;5206212;28;20018;-75
2022/04/24 08:09:13;;;;;;;11.00;2.30;;;22.60;99.90;;;;;;5207388;28;20034;-71
2022/04/24 08:11:43;;;;;;;2.95;1.80;;;22.10;99.90;;;;;;5207249;28;20025;-73
2022/04/24 08:14:14;;;;;;;4.13;2.35;;;22.60;99.90;;;;;;5206999;28;20469;-73
2022/04/24 08:16:45;;;;;;;6.75;2.13;;;22.80;99.90;;;;;;5207297;28;20105;-76
2022/04/24 08:19:16;;;;;;;6.35;2.10;;;22.90;99.90;;;;;;5206866;28;20053;-78
2022/04/24 08:21:47;;;;;;;5.03;1.85;;;23.00;99.90;;;;;;5207029;28;20025;-77
2022/04/24 08:24:18;;;;;;;4.40;2.10;;;23.00;99.90;;;;;;5207209;28;20091;-71
2022/04/24 08:26:49;;;;;;;4.43;1.75;;;23.10;99.90;;;;;;5205202;28;20036;-72
2022/04/24 08:29:20;;;;;;;9.65;2.00;;;22.80;99.90;;;;;;5204803;28;20036;-76
2022/04/24 08:31:50;;;;;;;4.63;1.90;;;23.30;99.90;;;;;;5204785;28;20029;-71
2022/04/24 08:34:21;;;;;;;6.35;2.40;;;23.10;99.90;;;;;;5203919;28;20029;-75
2022/04/24 08:36:52;;;;;;;7.53;2.17;;;22.80;99.90;;;;;;5205181;28;20036;-77
2022/04/24 08:39:23;;;;;;;6.65;1.95;;;23.30;99.90;;;;;;5205157;28;20053;-77
2022/04/24 08:41:54;;;;;;;8.25;3.03;;;23.00;99.90;;;;;;5205075;28;20033;-72
2022/04/24 08:44:26;;;;;;;5.78;2.45;;;22.70;95.10;;;;;;5202570;28;20030;-75
2022/04/24 08:46:57;;;;;;;5.00;2.25;;;22.70;99.90;;;;;;5204982;28;20026;-73
2022/04/24 08:49:32;;;;;;;5.38;2.38;;;23.00;99.20;;;;;;5205131;28;20112;-70
2022/04/24 08:52:05;;;;;;;5.35;1.95;;;23.40;99.90;;;;;;5204905;28;20025;-72
2022/04/24 08:54:43;;;;;;;8.63;4.28;;;23.10;99.90;;;;;;5205073;28;20017;-77
2022/04/24 08:57:14;;;;;;;7.22;2.08;;;23.50;99.90;;;;;;5205384;28;20022;-72
2022/04/24 08:59:46;;;;;;;7.07;3.95;;;23.40;96.10;;;;;;5203971;28;20021;-77
2022/04/24 09:02:16;;;;;;;10.65;3.83;;;23.70;98.70;;;;;;5204902;28;20423;-74
2022/04/24 09:04:48;;;;;;;4.47;2.10;;;24.00;98.30;;;;;;5205088;28;20033;-76
2022/04/24 09:07:20;;;;;;;6.65;2.42;;;23.50;94.90;;;;;;5205601;28;20483;-74
2022/04/24 09:09:53;;;;;;;5.68;2.35;;;23.50;95.80;;;;;;5206329;28;20484;-72
2022/04/24 09:12:26;;;;;;;9.55;3.65;;;23.90;98.30;;;;;;5206519;28;20072;-72
2022/04/24 09:14:58;;;;;;;5.70;2.20;;;23.70;91.30;;;;;;5206279;28;20531;-77
2022/04/24 09:17:32;;;;;;;6.75;2.25;;;23.70;93.20;;;;;;5201935;28;20369;-76
2022/04/24 09:20:16;;;;;;;8.05;2.42;;;23.60;93.30;;;;;;5205698;28;20205;-71
2022/04/24 09:22:47;;;;;;;5.53;2.28;;;23.60;94.30;;;;;;5205096;28;20033;-70
2022/04/24 09:25:18;;;;;;;7.22;3.17;;;23.70;92.20;;;;;;5208598;28;20508;-71
2022/04/24 09:27:53;;;;;;;9.50;4.25;;;24.00;93.60;;;;;;5209248;28;20128;-77
2022/04/24 09:30:27;;;;;;;8.98;2.90;;;24.00;92.80;;;;;;5210226;28;20816;-74
2022/04/24 09:32:59;;;;;;;6.10;2.33;;;24.60;90.90;;;;;;5209947;28;20079;-72
2022/04/24 09:35:40;;;;;;;11.07;3.70;;;23.60;87.20;;;;;;5209720;28;20026;-78
2022/04/24 09:38:17;;;;;;;8.15;3.90;;;24.40;93.60;;;;;;5207061;28;20014;-72
2022/04/24 09:40:49;;;;;;;6.32;2.08;;;24.60;94.30;;;;;;5209914;28;20025;-78
2022/04/24 09:43:20;;;;;;;5.25;2.15;;;24.10;91.50;;;;;;5208746;28;20038;-75
2022/04/24 09:45:56;;;;;;;7.25;2.45;;;23.80;88.70;;;;;;5210050;28;20068;-72
2022/04/24 09:48:27;;;;;;;4.68;2.13;;;23.30;89.50;;;;;;5209881;28;20037;-71
2022/04/24 09:50:59;;;;;;;5.45;1.90;;;23.30;89.50;;;;;;5208559;28;20029;-73
2022/04/24 09:53:31;;;;;;;6.65;2.00;;;23.30;87.40;;;;;;5208715;28;20057;-71
2022/04/24 09:56:03;;;;;;;4.57;2.10;;;23.90;89.30;;;;;;5208719;28;20026;-72
2022/04/24 09:58:36;;;;;;;11.15;2.72;;;23.60;87.70;;;;;;5209617;28;20040;-77
2022/04/24 10:01:09;;;;;;;6.32;2.13;;;23.90;85.80;;;;;;5209743;28;20064;-75
2022/04/24 10:03:40;;;;;;;4.05;1.83;;;23.80;83.10;;;;;;5209694;28;20037;-70
2022/04/24 10:06:11;;;;;;;5.97;2.20;;;24.40;90.60;;;;;;5208449;28;20037;-74
2022/04/24 10:08:43;;;;;;;4.00;2.17;;;23.60;83.60;;;;;;5207301;28;20033;-72
2022/04/24 10:11:14;;;;;;;6.50;2.55;;;23.80;85.60;;;;;;5209604;28;20084;-74
2022/04/24 10:13:46;;;;;;;4.20;2.08;;;24.50;87.10;;;;;;5208194;28;20053;-76
2022/04/24 10:16:37;;;;;;;7.03;1.70;;;23.50;81.50;;;;;;5209567;28;20033;-77
2022/04/24 10:19:26;;;;;;;4.93;2.10;;;23.60;84.60;;;;;;5209079;28;20048;-76
2022/04/24 10:22:16;;;;;;;3.63;1.98;;;24.30;87.70;;;;;;5207960;28;20036;-73
2022/04/24 10:24:47;;;;;;;3.38;1.77;;;24.30;90.00;;;;;;5208150;28;20120;-77
2022/04/24 10:27:18;;;;;;;3.90;1.90;;;24.40;86.20;;;;;;5209186;28;20100;-78
2022/04/24 10:29:59;;;;;;;4.05;2.00;;;23.80;85.70;;;;;;5209146;28;20030;-78
2022/04/24 10:32:30;;;;;;;5.90;2.30;;;24.70;86.20;;;;;;5209277;28;20100;-78
2022/04/24 10:35:13;;;;;;;5.40;1.98;;;24.60;88.10;;;;;;5207675;28;20555;-76
2022/04/24 10:37:44;;;;;;;6.55;2.25;;;24.40;87.90;;;;;;5209149;28;20029;-73
2022/04/24 10:40:18;;;;;;;5.38;2.00;;;24.60;88.60;;;;;;5209092;28;20041;-71
2022/04/24 10:42:49;;;;;;;6.82;2.25;;;24.40;86.40;;;;;;5208888;28;20029;-72
2022/04/24 10:45:20;;;;;;;6.65;2.00;;;24.80;88.10;;;;;;5208357;28;20117;-73
2022/04/24 10:47:52;;;;;;;5.40;1.83;;;24.60;88.20;;;;;;5208210;28;20390;-74
2022/04/24 10:50:23;;;;;;;5.55;2.10;;;24.20;84.10;;;;;;5207015;28;20128;-76
2022/04/24 10:52:55;;;;;;;10.38;2.40;;;24.20;85.00;;;;;;5208259;28;20024;-70
2022/04/24 10:55:30;;;;;;;6.15;2.20;;;25.00;88.10;;;;;;5205616;28;20029;-72
2022/04/24 10:58:03;;;;;;;6.75;2.40;;;25.20;87.00;;;;;;5206439;28;20029;-72
2022/04/24 11:00:36;;;;;;;5.47;1.90;;;24.90;87.50;;;;;;5208696;28;20422;-78
2022/04/24 11:03:13;;;;;;;3.38;2.13;;;25.30;84.10;;;;;;5202099;28;20469;-71
2022/04/24 11:05:47;;;;;;;4.43;1.83;;;25.50;89.00;;;;;;5208555;28;20096;-77
2022/04/24 11:08:20;;;;;;;7.45;1.75;;;24.80;83.40;;;;;;5208406;28;20030;-75
2022/04/24 11:10:51;;;;;;;5.68;2.00;;;24.90;84.00;;;;;;5208956;28;20014;-78
2022/04/24 11:13:22;;;;;;;11.80;1.98;;;24.50;82.50;;;;;;5207900;28;20480;-76
2022/04/24 11:15:53;;;;;;;12.63;2.67;;;24.40;82.70;;;;;;5207774;28;20017;-72
2022/04/24 11:18:26;;;;;;;11.05;2.40;;;24.80;84.10;;;;;;5208961;28;20041;-75
2022/04/24 11:20:58;;;;;;;6.70;2.17;;;25.00;85.90;;;;;;5208511;28;20096;-73
2022/04/24 11:23:35;;;;;;;7.13;2.33;;;25.00;85.20;;;;;;5208980;28;20433;-78
2022/04/24 11:26:09;;;;;;;6.18;2.05;;;25.10;86.60;;;;;;5209196;28;20422;-78
2022/04/24 11:28:41;;;;;;;4.95;1.92;;;24.80;84.60;;;;;;5207229;28;20116;-78
2022/04/24 11:31:16;;;;;;;6.05;2.03;;;24.80;83.30;;;;;;5207115;28;20156;-74
2022/04/24 11:33:58;;;;;;;5.20;1.90;;;24.50;84.20;;;;;;5207985;28;20358;-74
2022/04/24 11:36:31;;;;;;;7.85;2.30;;;25.00;86.20;;;;;;5208094;28;20049;-71
2022/04/24 11:39:05;;;;;;;10.35;2.67;;;24.80;85.50;;;;;;5207958;28;20109;-76
2022/04/24 11:41:36;;;;;;;9.65;2.20;;;25.20;87.50;;;;;;5207982;28;20028;-75
2022/04/24 11:50:13;;;;;;;5.80;2.00;;;24.70;82.90;;;;;;5207826;28;20044;-74
2022/04/24 11:52:46;;;;;;;7.20;1.90;;;24.70;82.40;;;;;;5206473;28;20034;-72
2022/04/24 11:55:21;;;;;;;3.88;1.88;;;24.30;81.20;;;;;;5206261;28;20037;-73
2022/04/24 11:57:56;;;;;;;4.95;2.33;;;24.80;83.70;;;;;;5207573;28;20032;-77
2022/04/24 12:00:36;;;;;;;6.00;1.90;;;24.20;83.80;;;;;;5207458;28;20090;-74
2022/04/24 12:03:07;;;;;;;9.07;2.17;;;24.00;81.20;;;;;;5207374;28;20037;-78
2022/04/24 12:05:38;;;;;;;5.80;2.13;;;24.60;83.70;;;;;;5207361;28;20415;-77
2022/04/24 12:08:12;;;;;;;3.30;1.90;;;24.60;81.10;;;;;;5207353;28;20048;-72
2022/04/24 12:10:46;;;;;;;9.30;2.17;;;24.30;80.10;;;;;;5207370;28;20056;-71
2022/04/24 12:13:22;;;;;;;10.82;2.13;;;24.60;82.30;;;;;;5207266;28;20107;-72
2022/04/24 12:15:53;;;;;;;4.70;2.20;;;25.30;81.60;;;;;;5207208;28;20025;-72
2022/04/24 12:18:25;;;;;;;5.40;2.00;;;24.60;80.30;;;;;;5207006;28;20041;-76
2022/04/24 12:20:56;;;;;;;8.15;2.35;;;24.90;80.90;;;;;;5206975;28;20049;-71
2022/04/24 12:23:28;;;;;;;10.48;2.55;;;24.00;78.90;;;;;;5207094;28;20033;-78
2022/04/24 12:26:00;;;;;;;7.90;2.33;;;24.50;79.40;;;;;;5207087;28;20021;-72
2022/04/24 12:28:34;;;;;;;15.90;3.00;;;24.70;79.00;;;;;;5207112;28;20048;-76
2022/04/24 12:31:07;;;;;;;4.63;2.22;;;24.90;80.50;;;;;;5207068;28;20017;-77
2022/04/24 12:33:49;;;;;;;7.65;2.70;;;24.40;78.50;;;;;;5207082;28;20014;-76
2022/04/24 12:36:24;;;;;;;3.95;2.50;;;25.00;83.30;;;;;;5207027;28;20029;-74
2022/04/24 12:39:00;;;;;;;7.47;2.67;;;24.30;80.00;;;;;;5207065;28;20104;-71
2022/04/24 12:41:33;;;;;;;5.40;2.00;;;24.40;79.30;;;;;;5206970;28;20045;-72
2022/04/24 12:44:05;;;;;;;7.68;2.75;;;24.30;78.80;;;;;;5205743;28;20095;-71
2022/04/24 12:46:36;;;;;;;3.45;2.35;;;24.20;79.10;;;;;;5206902;28;20022;-72
2022/04/24 12:49:07;;;;;;;10.77;2.45;;;24.00;78.20;;;;;;5206707;28;20073;-73
2022/04/24 12:51:38;;;;;;;7.10;2.80;;;24.40;79.70;;;;;;5206641;28;20056;-76
2022/04/24 12:54:09;;;;;;;7.57;2.72;;;24.90;80.30;;;;;;5205605;28;20431;-69
2022/04/24 12:56:41;;;;;;;5.57;2.65;;;24.60;80.30;;;;;;5206313;28;20022;-76
2022/04/24 12:59:12;;;;;;;4.43;2.30;;;24.40;81.00;;;;;;5206914;28;20025;-74
2022/04/24 13:01:46;;;;;;;4.65;2.83;;;24.00;76.70;;;;;;5210527;28;20025;-73
2022/04/24 13:04:17;;;;;;;11.00;2.10;;;24.40;77.70;;;;;;5207681;28;20033;-71
2022/04/24 13:06:48;;;;;;;6.25;2.67;;;24.50;78.50;;;;;;5201960;28;20495;-73
2022/04/24 13:09:19;;;;;;;8.80;3.47;;;23.70;76.70;;;;;;5209979;28;20496;-74
2022/04/24 13:11:50;;;;;;;10.27;2.80;;;24.00;80.10;;;;;;5210304;28;20021;-76
2022/04/24 13:14:25;;;;;;;8.20;2.42;;;24.00;77.40;;;;;;5208554;28;20021;-73